sensor_id;sensor_type;location;lat;lon;timestamp;P1;durP1;ratioP1;P2;durP2;ratioP2
67227;SDS011;54139;42.616;23.748;2023-04-25T00:01:16;3.53;;;2.65;;
67227;SDS011;54139;42.616;23.748;2023-04-25T00:03:41;3.10;;;2.80;;
67227;SDS011;54139;42.616;23.748;2023-04-25T00:06:07;3.38;;;3.08;;
67227;SDS011;54139;42.616;23.748;2023-04-25T00:08:32;2.92;;;2.72;;
67227;SDS011;54139;42.616;23.748;2023-04-25T00:10:58;2.00;;;1.90;;
67227;SDS011;54139;42.616;23.748;2023-04-25T00:13:23;2.17;;;1.45;;
67227;SDS011;54139;42.616;23.748;2023-04-25T00:15:50;1.58;;;1.48;;
67227;SDS011;54139;42.616;23.748;2023-04-25T00:18:16;2.13;;;1.85;;
67227;SDS011;54139;42.616;23.748;2023-04-25T00:20:42;1.90;;;1.80;;
67227;SDS011;54139;42.616;23.748;2023-04-25T00:23:11;1.83;;;1.73;;
67227;SDS011;54139;42.616;23.748;2023-04-25T00:25:36;2.33;;;2.13;;
67227;SDS011;54139;42.616;23.748;2023-04-25T00:28:02;7.63;;;3.20;;
67227;SDS011;54139;42.616;23.748;2023-04-25T00:30:27;3.47;;;2.60;;
67227;SDS011;54139;42.616;23.748;2023-04-25T00:32:52;2.67;;;2.47;;
67227;SDS011;54139;42.616;23.748;2023-04-25T00:35:18;2.75;;;2.55;;
67227;SDS011;54139;42.616;23.748;2023-04-25T00:37:43;2.95;;;2.65;;
67227;SDS011;54139;42.616;23.748;2023-04-25T00:40:09;2.42;;;2.22;;
67227;SDS011;54139;42.616;23.748;2023-04-25T00:42:35;3.85;;;2.90;;
67227;SDS011;54139;42.616;23.748;2023-04-25T00:45:01;2.65;;;2.45;;
67227;SDS011;54139;42.616;23.748;2023-04-25T00:47:26;3.45;;;3.10;;
67227;SDS011;54139;42.616;23.748;2023-04-25T00:49:53;3.00;;;2.70;;
67227;SDS011;54139;42.616;23.748;2023-04-25T00:52:19;4.18;;;3.53;;
67227;SDS011;54139;42.616;23.748;2023-04-25T00:54:44;4.15;;;3.00;;
67227;SDS011;54139;42.616;23.748;2023-04-25T00:57:09;3.83;;;3.40;;
67227;SDS011;54139;42.616;23.748;2023-04-25T00:59:36;3.75;;;3.45;;
67227;SDS011;54139;42.616;23.748;2023-04-25T01:02:02;4.95;;;4.60;;
67227;SDS011;54139;42.616;23.748;2023-04-25T01:04:27;3.30;;;3.10;;
67227;SDS011;54139;42.616;23.748;2023-04-25T01:06:53;4.30;;;4.00;;
67227;SDS011;54139;42.616;23.748;2023-04-25T01:09:19;5.07;;;4.40;;
67227;SDS011;54139;42.616;23.748;2023-04-25T01:11:44;4.00;;;3.63;;
67227;SDS011;54139;42.616;23.748;2023-04-25T01:14:10;3.85;;;3.55;;
67227;SDS011;54139;42.616;23.748;2023-04-25T01:16:35;4.13;;;3.83;;
67227;SDS011;54139;42.616;23.748;2023-04-25T01:19:01;5.90;;;5.00;;
67227;SDS011;54139;42.616;23.748;2023-04-25T01:21:26;5.63;;;5.10;;
67227;SDS011;54139;42.616;23.748;2023-04-25T01:23:54;6.22;;;5.47;;
67227;SDS011;54139;42.616;23.748;2023-04-25T01:26:20;5.57;;;5.15;;
67227;SDS011;54139;42.616;23.748;2023-04-25T01:28:46;4.88;;;4.57;;
67227;SDS011;54139;42.616;23.748;2023-04-25T01:31:12;5.30;;;4.90;;
67227;SDS011;54139;42.616;23.748;2023-04-25T01:33:37;4.63;;;4.10;;
67227;SDS011;54139;42.616;23.748;2023-04-25T01:36:03;5.13;;;3.85;;
67227;SDS011;54139;42.616;23.748;2023-04-25T01:38:28;5.57;;;5.18;;
67227;SDS011;54139;42.616;23.748;2023-04-25T01:40:54;4.85;;;4.45;;
67227;SDS011;54139;42.616;23.748;2023-04-25T01:43:20;5.38;;;4.88;;
67227;SDS011;54139;42.616;23.748;2023-04-25T01:45:45;4.88;;;4.50;;
67227;SDS011;54139;42.616;23.748;2023-04-25T01:48:12;5.35;;;4.40;;
67227;SDS011;54139;42.616;23.748;2023-04-25T01:50:38;4.78;;;4.38;;
67227;SDS011;54139;42.616;23.748;2023-04-25T01:53:04;4.45;;;4.15;;
67227;SDS011;54139;42.616;23.748;2023-04-25T01:55:30;4.53;;;4.20;;
67227;SDS011;54139;42.616;23.748;2023-04-25T01:57:55;5.38;;;4.88;;
67227;SDS011;54139;42.616;23.748;2023-04-25T02:00:20;5.95;;;5.47;;
67227;SDS011;54139;42.616;23.748;2023-04-25T02:02:46;6.55;;;6.05;;
67227;SDS011;54139;42.616;23.748;2023-04-25T02:05:11;6.10;;;5.50;;
67227;SDS011;54139;42.616;23.748;2023-04-25T02:07:36;5.80;;;5.40;;
67227;SDS011;54139;42.616;23.748;2023-04-25T02:10:02;5.63;;;5.22;;
67227;SDS011;54139;42.616;23.748;2023-04-25T02:12:28;5.88;;;5.45;;
67227;SDS011;54139;42.616;23.748;2023-04-25T02:14:53;5.25;;;4.95;;
67227;SDS011;54139;42.616;23.748;2023-04-25T02:17:19;5.70;;;5.30;;
67227;SDS011;54139;42.616;23.748;2023-04-25T02:19:44;5.47;;;4.60;;
67227;SDS011;54139;42.616;23.748;2023-04-25T02:22:10;4.78;;;4.47;;
67227;SDS011;54139;42.616;23.748;2023-04-25T02:24:35;7.70;;;7.10;;
67227;SDS011;54139;42.616;23.748;2023-04-25T02:27:00;6.63;;;6.13;;
67227;SDS011;54139;42.616;23.748;2023-04-25T02:29:26;5.95;;;5.55;;
67227;SDS011;54139;42.616;23.748;2023-04-25T02:31:51;6.65;;;6.25;;
67227;SDS011;54139;42.616;23.748;2023-04-25T02:34:16;6.40;;;5.93;;
67227;SDS011;54139;42.616;23.748;2023-04-25T02:36:41;7.38;;;6.80;;
67227;SDS011;54139;42.616;23.748;2023-04-25T02:39:07;7.90;;;7.25;;
67227;SDS011;54139;42.616;23.748;2023-04-25T02:41:32;9.98;;;8.90;;
67227;SDS011;54139;42.616;23.748;2023-04-25T02:43:57;7.07;;;6.57;;
67227;SDS011;54139;42.616;23.748;2023-04-25T02:46:23;7.65;;;5.60;;
67227;SDS011;54139;42.616;23.748;2023-04-25T02:48:48;6.38;;;5.80;;
67227;SDS011;54139;42.616;23.748;2023-04-25T02:51:13;12.63;;;10.77;;
67227;SDS011;54139;42.616;23.748;2023-04-25T02:53:39;7.40;;;6.70;;
67227;SDS011;54139;42.616;23.748;2023-04-25T02:56:04;8.02;;;7.45;;
67227;SDS011;54139;42.616;23.748;2023-04-25T02:58:29;7.60;;;7.00;;
67227;SDS011;54139;42.616;23.748;2023-04-25T03:00:55;8.55;;;7.78;;
67227;SDS011;54139;42.616;23.748;2023-04-25T03:03:20;10.23;;;9.32;;
67227;SDS011;54139;42.616;23.748;2023-04-25T03:05:49;12.23;;;10.65;;
67227;SDS011;54139;42.616;23.748;2023-04-25T03:08:15;10.88;;;9.98;;
67227;SDS011;54139;42.616;23.748;2023-04-25T03:10:40;11.10;;;8.60;;
67227;SDS011;54139;42.616;23.748;2023-04-25T03:13:07;10.75;;;9.95;;
67227;SDS011;54139;42.616;23.748;2023-04-25T03:15:32;16.75;;;15.23;;
67227;SDS011;54139;42.616;23.748;2023-04-25T03:17:57;17.02;;;15.55;;
67227;SDS011;54139;42.616;23.748;2023-04-25T03:20:22;15.77;;;14.35;;
67227;SDS011;54139;42.616;23.748;2023-04-25T03:22:48;16.15;;;14.68;;
67227;SDS011;54139;42.616;23.748;2023-04-25T03:25:13;15.30;;;13.95;;
67227;SDS011;54139;42.616;23.748;2023-04-25T03:27:38;12.77;;;11.77;;
67227;SDS011;54139;42.616;23.748;2023-04-25T03:30:04;11.23;;;10.25;;
67227;SDS011;54139;42.616;23.748;2023-04-25T03:32:29;9.95;;;9.15;;
67227;SDS011;54139;42.616;23.748;2023-04-25T03:34:54;14.85;;;13.35;;
67227;SDS011;54139;42.616;23.748;2023-04-25T03:37:20;14.73;;;13.15;;
67227;SDS011;54139;42.616;23.748;2023-04-25T03:39:45;10.75;;;9.95;;
67227;SDS011;54139;42.616;23.748;2023-04-25T03:42:11;10.30;;;9.50;;
67227;SDS011;54139;42.616;23.748;2023-04-25T03:44:36;10.98;;;10.02;;
67227;SDS011;54139;42.616;23.748;2023-04-25T03:47:01;9.95;;;9.10;;
67227;SDS011;54139;42.616;23.748;2023-04-25T03:49:26;9.90;;;9.20;;
67227;SDS011;54139;42.616;23.748;2023-04-25T03:51:52;8.93;;;8.03;;
67227;SDS011;54139;42.616;23.748;2023-04-25T03:54:17;9.88;;;8.88;;
67227;SDS011;54139;42.616;23.748;2023-04-25T03:56:44;9.43;;;8.50;;
67227;SDS011;54139;42.616;23.748;2023-04-25T03:59:09;8.70;;;8.07;;
67227;SDS011;54139;42.616;23.748;2023-04-25T04:01:34;9.13;;;8.35;;
67227;SDS011;54139;42.616;23.748;2023-04-25T04:04:00;10.88;;;9.75;;
67227;SDS011;54139;42.616;23.748;2023-04-25T04:06:25;23.83;;;17.63;;
67227;SDS011;54139;42.616;23.748;2023-04-25T04:08:51;38.60;;;22.55;;
67227;SDS011;54139;42.616;23.748;2023-04-25T04:11:17;24.67;;;18.02;;
67227;SDS011;54139;42.616;23.748;2023-04-25T04:13:43;11.40;;;9.30;;
67227;SDS011;54139;42.616;23.748;2023-04-25T04:16:09;10.60;;;9.00;;
67227;SDS011;54139;42.616;23.748;2023-04-25T04:18:34;8.35;;;7.72;;
67227;SDS011;54139;42.616;23.748;2023-04-25T04:21:00;8.27;;;7.72;;
67227;SDS011;54139;42.616;23.748;2023-04-25T04:23:26;5.75;;;5.25;;
67227;SDS011;54139;42.616;23.748;2023-04-25T04:25:52;4.85;;;4.45;;
67227;SDS011;54139;42.616;23.748;2023-04-25T04:28:19;3.58;;;3.30;;
67227;SDS011;54139;42.616;23.748;2023-04-25T04:30:44;3.72;;;3.13;;
67227;SDS011;54139;42.616;23.748;2023-04-25T04:33:12;3.15;;;2.95;;
67227;SDS011;54139;42.616;23.748;2023-04-25T04:35:37;3.08;;;2.80;;
67227;SDS011;54139;42.616;23.748;2023-04-25T04:38:03;2.63;;;2.43;;
67227;SDS011;54139;42.616;23.748;2023-04-25T04:40:28;2.50;;;2.10;;
67227;SDS011;54139;42.616;23.748;2023-04-25T04:42:56;3.05;;;2.85;;
67227;SDS011;54139;42.616;23.748;2023-04-25T04:45:22;3.63;;;2.30;;
67227;SDS011;54139;42.616;23.748;2023-04-25T04:47:47;3.42;;;3.13;;
67227;SDS011;54139;42.616;23.748;2023-04-25T04:50:14;4.20;;;3.90;;
67227;SDS011;54139;42.616;23.748;2023-04-25T04:52:39;5.47;;;4.93;;
67227;SDS011;54139;42.616;23.748;2023-04-25T04:55:05;4.23;;;3.93;;
67227;SDS011;54139;42.616;23.748;2023-04-25T04:57:31;3.67;;;2.83;;
67227;SDS011;54139;42.616;23.748;2023-04-25T04:59:58;3.63;;;3.42;;
67227;SDS011;54139;42.616;23.748;2023-04-25T05:02:23;4.18;;;3.83;;
67227;SDS011;54139;42.616;23.748;2023-04-25T05:04:48;3.60;;;3.37;;
67227;SDS011;54139;42.616;23.748;2023-04-25T05:07:13;4.57;;;4.03;;
67227;SDS011;54139;42.616;23.748;2023-04-25T05:09:39;8.20;;;7.38;;
67227;SDS011;54139;42.616;23.748;2023-04-25T05:12:04;5.53;;;5.10;;
67227;SDS011;54139;42.616;23.748;2023-04-25T05:14:30;5.25;;;4.85;;
67227;SDS011;54139;42.616;23.748;2023-04-25T05:16:55;5.28;;;4.97;;
67227;SDS011;54139;42.616;23.748;2023-04-25T05:19:21;6.18;;;5.57;;
67227;SDS011;54139;42.616;23.748;2023-04-25T05:21:46;6.63;;;6.18;;
67227;SDS011;54139;42.616;23.748;2023-04-25T05:24:11;6.25;;;5.75;;
67227;SDS011;54139;42.616;23.748;2023-04-25T05:26:37;7.75;;;7.15;;
67227;SDS011;54139;42.616;23.748;2023-04-25T05:29:02;6.53;;;6.07;;
67227;SDS011;54139;42.616;23.748;2023-04-25T05:31:27;7.05;;;6.55;;
67227;SDS011;54139;42.616;23.748;2023-04-25T05:33:52;6.73;;;6.13;;
67227;SDS011;54139;42.616;23.748;2023-04-25T05:36:18;5.38;;;4.88;;
67227;SDS011;54139;42.616;23.748;2023-04-25T05:38:43;5.50;;;5.20;;
67227;SDS011;54139;42.616;23.748;2023-04-25T05:41:09;6.40;;;5.90;;
67227;SDS011;54139;42.616;23.748;2023-04-25T05:43:34;7.07;;;6.53;;
67227;SDS011;54139;42.616;23.748;2023-04-25T05:46:00;8.52;;;7.68;;
67227;SDS011;54139;42.616;23.748;2023-04-25T05:48:25;10.07;;;9.27;;
67227;SDS011;54139;42.616;23.748;2023-04-25T05:50:50;11.38;;;9.30;;
67227;SDS011;54139;42.616;23.748;2023-04-25T05:53:16;9.27;;;8.68;;
67227;SDS011;54139;42.616;23.748;2023-04-25T05:55:42;9.48;;;8.77;;
67227;SDS011;54139;42.616;23.748;2023-04-25T05:58:07;9.13;;;8.52;;
67227;SDS011;54139;42.616;23.748;2023-04-25T06:00:32;11.23;;;10.10;;
67227;SDS011;54139;42.616;23.748;2023-04-25T06:02:58;11.07;;;10.18;;
67227;SDS011;54139;42.616;23.748;2023-04-25T06:05:23;9.90;;;9.20;;
67227;SDS011;54139;42.616;23.748;2023-04-25T06:07:48;9.95;;;9.25;;
67227;SDS011;54139;42.616;23.748;2023-04-25T06:10:14;11.38;;;10.38;;
67227;SDS011;54139;42.616;23.748;2023-04-25T06:12:40;11.43;;;10.40;;
67227;SDS011;54139;42.616;23.748;2023-04-25T06:15:05;9.88;;;9.07;;
67227;SDS011;54139;42.616;23.748;2023-04-25T06:17:31;9.88;;;9.02;;
67227;SDS011;54139;42.616;23.748;2023-04-25T06:19:56;7.70;;;7.00;;
67227;SDS011;54139;42.616;23.748;2023-04-25T06:22:21;8.40;;;7.63;;
67227;SDS011;54139;42.616;23.748;2023-04-25T06:24:46;10.68;;;9.77;;
67227;SDS011;54139;42.616;23.748;2023-04-25T06:27:13;9.35;;;8.60;;
67227;SDS011;54139;42.616;23.748;2023-04-25T06:29:38;12.35;;;11.35;;
67227;SDS011;54139;42.616;23.748;2023-04-25T06:32:04;13.30;;;12.27;;
67227;SDS011;54139;42.616;23.748;2023-04-25T06:34:29;12.68;;;11.52;;
67227;SDS011;54139;42.616;23.748;2023-04-25T06:36:55;12.93;;;11.80;;
67227;SDS011;54139;42.616;23.748;2023-04-25T06:39:20;12.63;;;11.52;;
67227;SDS011;54139;42.616;23.748;2023-04-25T06:41:48;11.05;;;10.25;;
67227;SDS011;54139;42.616;23.748;2023-04-25T06:44:13;10.18;;;9.15;;
67227;SDS011;54139;42.616;23.748;2023-04-25T06:46:38;10.30;;;9.60;;
67227;SDS011;54139;42.616;23.748;2023-04-25T06:49:04;10.48;;;9.60;;
67227;SDS011;54139;42.616;23.748;2023-04-25T06:51:29;8.98;;;8.25;;
67227;SDS011;54139;42.616;23.748;2023-04-25T06:53:55;8.85;;;8.15;;
67227;SDS011;54139;42.616;23.748;2023-04-25T06:56:21;7.43;;;6.93;;
67227;SDS011;54139;42.616;23.748;2023-04-25T06:58:46;6.43;;;6.03;;
67227;SDS011;54139;42.616;23.748;2023-04-25T07:01:11;7.13;;;6.50;;
67227;SDS011;54139;42.616;23.748;2023-04-25T07:03:37;8.77;;;8.10;;
67227;SDS011;54139;42.616;23.748;2023-04-25T07:06:03;9.15;;;8.50;;
67227;SDS011;54139;42.616;23.748;2023-04-25T07:08:28;6.90;;;6.28;;
67227;SDS011;54139;42.616;23.748;2023-04-25T07:10:54;6.75;;;6.28;;
67227;SDS011;54139;42.616;23.748;2023-04-25T07:13:19;6.75;;;6.25;;
67227;SDS011;54139;42.616;23.748;2023-04-25T07:15:45;6.13;;;5.63;;
67227;SDS011;54139;42.616;23.748;2023-04-25T07:18:10;6.10;;;5.70;;
67227;SDS011;54139;42.616;23.748;2023-04-25T07:20:35;6.82;;;6.18;;
67227;SDS011;54139;42.616;23.748;2023-04-25T07:23:01;6.22;;;5.63;;
67227;SDS011;54139;42.616;23.748;2023-04-25T07:25:26;6.93;;;6.20;;
67227;SDS011;54139;42.616;23.748;2023-04-25T07:27:51;6.50;;;6.00;;
67227;SDS011;54139;42.616;23.748;2023-04-25T07:30:17;5.65;;;5.28;;
67227;SDS011;54139;42.616;23.748;2023-04-25T07:32:42;5.20;;;4.80;;
67227;SDS011;54139;42.616;23.748;2023-04-25T07:35:07;5.97;;;5.47;;
67227;SDS011;54139;42.616;23.748;2023-04-25T07:37:33;5.88;;;5.20;;
67227;SDS011;54139;42.616;23.748;2023-04-25T07:39:59;7.63;;;6.18;;
67227;SDS011;54139;42.616;23.748;2023-04-25T07:42:24;5.63;;;4.75;;
67227;SDS011;54139;42.616;23.748;2023-04-25T07:44:50;5.68;;;5.20;;
67227;SDS011;54139;42.616;23.748;2023-04-25T07:47:16;5.57;;;5.18;;
67227;SDS011;54139;42.616;23.748;2023-04-25T07:49:44;4.75;;;4.45;;
67227;SDS011;54139;42.616;23.748;2023-04-25T07:52:10;4.45;;;4.15;;
67227;SDS011;54139;42.616;23.748;2023-04-25T07:54:35;6.00;;;3.97;;
67227;SDS011;54139;42.616;23.748;2023-04-25T07:57:01;4.53;;;4.23;;
67227;SDS011;54139;42.616;23.748;2023-04-25T07:59:27;4.30;;;4.00;;
67227;SDS011;54139;42.616;23.748;2023-04-25T08:01:53;3.65;;;3.45;;
67227;SDS011;54139;42.616;23.748;2023-04-25T08:04:18;4.38;;;3.40;;
67227;SDS011;54139;42.616;23.748;2023-04-25T08:06:43;3.13;;;2.92;;
67227;SDS011;54139;42.616;23.748;2023-04-25T08:09:09;4.03;;;3.63;;
67227;SDS011;54139;42.616;23.748;2023-04-25T08:11:34;4.15;;;3.85;;
67227;SDS011;54139;42.616;23.748;2023-04-25T08:14:00;3.90;;;3.60;;
67227;SDS011;54139;42.616;23.748;2023-04-25T08:16:25;4.10;;;3.80;;
67227;SDS011;54139;42.616;23.748;2023-04-25T08:18:51;4.22;;;3.20;;
67227;SDS011;54139;42.616;23.748;2023-04-25T08:21:16;3.30;;;3.10;;
67227;SDS011;54139;42.616;23.748;2023-04-25T08:23:41;3.38;;;2.92;;
67227;SDS011;54139;42.616;23.748;2023-04-25T08:26:07;2.65;;;2.45;;
67227;SDS011;54139;42.616;23.748;2023-04-25T08:28:32;2.40;;;2.20;;
67227;SDS011;54139;42.616;23.748;2023-04-25T08:30:57;2.60;;;2.40;;
67227;SDS011;54139;42.616;23.748;2023-04-25T08:33:23;2.58;;;1.95;;
67227;SDS011;54139;42.616;23.748;2023-04-25T08:35:48;2.53;;;2.33;;
67227;SDS011;54139;42.616;23.748;2023-04-25T08:38:13;2.63;;;2.50;;
67227;SDS011;54139;42.616;23.748;2023-04-25T08:40:39;3.20;;;3.00;;
67227;SDS011;54139;42.616;23.748;2023-04-25T08:43:05;3.15;;;2.95;;
67227;SDS011;54139;42.616;23.748;2023-04-25T08:45:36;16.48;;;13.35;;
67227;SDS011;54139;42.616;23.748;2023-04-25T08:48:03;2.97;;;2.78;;
67227;SDS011;54139;42.616;23.748;2023-04-25T08:50:29;3.30;;;3.00;;
67227;SDS011;54139;42.616;23.748;2023-04-25T08:52:55;3.38;;;3.17;;
67227;SDS011;54139;42.616;23.748;2023-04-25T08:55:22;4.47;;;4.07;;
67227;SDS011;54139;42.616;23.748;2023-04-25T08:57:48;2.80;;;2.60;;
67227;SDS011;54139;42.616;23.748;2023-04-25T09:00:14;3.30;;;3.10;;
67227;SDS011;54139;42.616;23.748;2023-04-25T09:02:40;3.33;;;2.90;;
67227;SDS011;54139;42.616;23.748;2023-04-25T09:05:07;4.10;;;3.10;;
67227;SDS011;54139;42.616;23.748;2023-04-25T09:07:35;2.85;;;2.65;;
67227;SDS011;54139;42.616;23.748;2023-04-25T09:10:00;2.73;;;2.53;;
67227;SDS011;54139;42.616;23.748;2023-04-25T09:12:28;3.72;;;2.40;;
67227;SDS011;54139;42.616;23.748;2023-04-25T09:17:29;2.90;;;2.40;;
67227;SDS011;54139;42.616;23.748;2023-04-25T09:19:54;3.05;;;2.85;;
67227;SDS011;54139;42.616;23.748;2023-04-25T09:22:19;3.17;;;2.50;;
67227;SDS011;54139;42.616;23.748;2023-04-25T09:24:47;4.03;;;2.50;;
67227;SDS011;54139;42.616;23.748;2023-04-25T09:27:18;2.85;;;2.35;;
67227;SDS011;54139;42.616;23.748;2023-04-25T09:29:43;2.53;;;2.40;;
67227;SDS011;54139;42.616;23.748;2023-04-25T09:32:19;7.68;;;2.38;;
67227;SDS011;54139;42.616;23.748;2023-04-25T09:35:03;2.13;;;1.90;;
67227;SDS011;54139;42.616;23.748;2023-04-25T09:37:30;1.05;;;0.60;;
67227;SDS011;54139;42.616;23.748;2023-04-25T09:39:56;1.83;;;1.55;;
67227;SDS011;54139;42.616;23.748;2023-04-25T09:42:25;2.05;;;1.80;;
67227;SDS011;54139;42.616;23.748;2023-04-25T09:44:52;1.67;;;1.15;;
67227;SDS011;54139;42.616;23.748;2023-04-25T09:47:17;1.45;;;1.23;;
67227;SDS011;54139;42.616;23.748;2023-04-25T09:49:43;2.03;;;1.83;;
67227;SDS011;54139;42.616;23.748;2023-04-25T09:52:09;2.17;;;1.88;;
67227;SDS011;54139;42.616;23.748;2023-04-25T09:54:37;4.18;;;1.80;;
67227;SDS011;54139;42.616;23.748;2023-04-25T09:57:24;1.55;;;1.45;;
67227;SDS011;54139;42.616;23.748;2023-04-25T09:59:49;1.80;;;1.40;;
67227;SDS011;54139;42.616;23.748;2023-04-25T10:02:16;2.65;;;1.30;;
67227;SDS011;54139;42.616;23.748;2023-04-25T10:04:41;1.30;;;1.20;;
67227;SDS011;54139;42.616;23.748;2023-04-25T10:07:08;1.10;;;1.00;;
67227;SDS011;54139;42.616;23.748;2023-04-25T10:09:34;2.25;;;1.02;;
67227;SDS011;54139;42.616;23.748;2023-04-25T10:12:02;1.48;;;1.27;;
67227;SDS011;54139;42.616;23.748;2023-04-25T10:14:29;2.10;;;1.00;;
67227;SDS011;54139;42.616;23.748;2023-04-25T10:16:54;1.38;;;1.10;;
67227;SDS011;54139;42.616;23.748;2023-04-25T10:19:21;1.10;;;0.95;;
67227;SDS011;54139;42.616;23.748;2023-04-25T10:21:48;1.20;;;1.00;;
67227;SDS011;54139;42.616;23.748;2023-04-25T10:24:15;0.77;;;0.77;;
67227;SDS011;54139;42.616;23.748;2023-04-25T10:26:41;0.80;;;0.80;;
67227;SDS011;54139;42.616;23.748;2023-04-25T10:29:06;0.90;;;0.90;;
67227;SDS011;54139;42.616;23.748;2023-04-25T10:31:31;1.70;;;1.60;;
67227;SDS011;54139;42.616;23.748;2023-04-25T10:33:57;3.42;;;1.38;;
67227;SDS011;54139;42.616;23.748;2023-04-25T10:36:22;4.13;;;1.60;;
67227;SDS011;54139;42.616;23.748;2023-04-25T10:38:49;1.30;;;1.20;;
67227;SDS011;54139;42.616;23.748;2023-04-25T10:41:18;2.78;;;1.30;;
67227;SDS011;54139;42.616;23.748;2023-04-25T10:43:47;1.55;;;1.45;;
67227;SDS011;54139;42.616;23.748;2023-04-25T10:46:13;1.25;;;1.20;;
67227;SDS011;54139;42.616;23.748;2023-04-25T10:48:38;1.90;;;1.80;;
67227;SDS011;54139;42.616;23.748;2023-04-25T10:51:09;1.23;;;1.23;;
67227;SDS011;54139;42.616;23.748;2023-04-25T10:53:34;1.70;;;1.60;;
67227;SDS011;54139;42.616;23.748;2023-04-25T10:55:59;1.60;;;1.50;;
67227;SDS011;54139;42.616;23.748;2023-04-25T10:58:25;1.60;;;1.50;;
67227;SDS011;54139;42.616;23.748;2023-04-25T11:00:51;1.75;;;1.38;;
67227;SDS011;54139;42.616;23.748;2023-04-25T11:03:16;1.83;;;0.88;;
67227;SDS011;54139;42.616;23.748;2023-04-25T11:05:42;1.50;;;1.40;;
67227;SDS011;54139;42.616;23.748;2023-04-25T11:08:12;1.30;;;1.20;;
67227;SDS011;54139;42.616;23.748;2023-04-25T11:13:04;1.10;;;1.00;;
67227;SDS011;54139;42.616;23.748;2023-04-25T11:15:30;2.55;;;1.08;;
67227;SDS011;54139;42.616;23.748;2023-04-25T11:17:55;3.58;;;1.40;;
67227;SDS011;54139;42.616;23.748;2023-04-25T11:20:21;3.63;;;1.20;;
67227;SDS011;54139;42.616;23.748;2023-04-25T11:22:46;2.10;;;1.20;;
67227;SDS011;54139;42.616;23.748;2023-04-25T11:25:12;1.05;;;0.90;;
67227;SDS011;54139;42.616;23.748;2023-04-25T11:27:38;1.27;;;0.77;;
67227;SDS011;54139;42.616;23.748;2023-04-25T11:30:14;0.60;;;0.55;;
67227;SDS011;54139;42.616;23.748;2023-04-25T11:32:40;0.73;;;0.50;;
67227;SDS011;54139;42.616;23.748;2023-04-25T11:35:07;0.70;;;0.70;;
67227;SDS011;54139;42.616;23.748;2023-04-25T11:37:32;1.50;;;0.52;;
67227;SDS011;54139;42.616;23.748;2023-04-25T11:39:59;1.17;;;0.40;;
67227;SDS011;54139;42.616;23.748;2023-04-25T11:42:24;0.75;;;0.70;;
67227;SDS011;54139;42.616;23.748;2023-04-25T11:44:50;0.90;;;0.70;;
67227;SDS011;54139;42.616;23.748;2023-04-25T11:47:16;0.75;;;0.75;;
67227;SDS011;54139;42.616;23.748;2023-04-25T11:49:41;0.93;;;0.70;;
67227;SDS011;54139;42.616;23.748;2023-04-25T11:52:06;3.00;;;0.57;;
67227;SDS011;54139;42.616;23.748;2023-04-25T11:54:34;2.03;;;0.80;;
67227;SDS011;54139;42.616;23.748;2023-04-25T11:57:00;0.70;;;0.52;;
67227;SDS011;54139;42.616;23.748;2023-04-25T11:59:26;1.75;;;0.75;;
67227;SDS011;54139;42.616;23.748;2023-04-25T12:01:52;0.63;;;0.60;;
67227;SDS011;54139;42.616;23.748;2023-04-25T12:04:22;0.93;;;0.77;;
67227;SDS011;54139;42.616;23.748;2023-04-25T12:06:49;1.17;;;0.90;;
67227;SDS011;54139;42.616;23.748;2023-04-25T12:09:16;2.03;;;1.50;;
67227;SDS011;54139;42.616;23.748;2023-04-25T12:11:52;2.25;;;0.70;;
67227;SDS011;54139;42.616;23.748;2023-04-25T12:14:25;1.27;;;0.80;;
67227;SDS011;54139;42.616;23.748;2023-04-25T12:16:54;0.73;;;0.73;;
67227;SDS011;54139;42.616;23.748;2023-04-25T12:19:19;0.70;;;0.50;;
67227;SDS011;54139;42.616;23.748;2023-04-25T12:21:45;1.85;;;1.20;;
67227;SDS011;54139;42.616;23.748;2023-04-25T12:24:18;2.05;;;1.83;;
67227;SDS011;54139;42.616;23.748;2023-04-25T12:29:20;1.80;;;1.60;;
67227;SDS011;54139;42.616;23.748;2023-04-25T12:31:45;1.88;;;0.75;;
67227;SDS011;54139;42.616;23.748;2023-04-25T12:34:11;1.52;;;1.00;;
67227;SDS011;54139;42.616;23.748;2023-04-25T12:36:37;2.22;;;1.13;;
67227;SDS011;54139;42.616;23.748;2023-04-25T12:39:03;1.05;;;0.88;;
67227;SDS011;54139;42.616;23.748;2023-04-25T12:41:29;1.90;;;1.15;;
67227;SDS011;54139;42.616;23.748;2023-04-25T12:43:55;2.10;;;1.27;;
67227;SDS011;54139;42.616;23.748;2023-04-25T12:46:20;4.72;;;1.85;;
67227;SDS011;54139;42.616;23.748;2023-04-25T12:48:45;2.33;;;2.15;;
67227;SDS011;54139;42.616;23.748;2023-04-25T12:51:11;1.80;;;1.70;;
67227;SDS011;54139;42.616;23.748;2023-04-25T12:53:36;0.93;;;0.90;;
67227;SDS011;54139;42.616;23.748;2023-04-25T12:56:02;7.18;;;0.80;;
67227;SDS011;54139;42.616;23.748;2023-04-25T12:58:28;2.15;;;1.30;;
67227;SDS011;54139;42.616;23.748;2023-04-25T13:00:53;2.75;;;0.80;;
67227;SDS011;54139;42.616;23.748;2023-04-25T13:03:19;2.00;;;1.20;;
67227;SDS011;54139;42.616;23.748;2023-04-25T13:05:44;2.78;;;1.10;;
67227;SDS011;54139;42.616;23.748;2023-04-25T13:08:09;1.10;;;1.00;;
67227;SDS011;54139;42.616;23.748;2023-04-25T13:10:35;1.00;;;0.93;;
67227;SDS011;54139;42.616;23.748;2023-04-25T13:13:01;1.17;;;1.00;;
67227;SDS011;54139;42.616;23.748;2023-04-25T13:15:27;1.05;;;0.95;;
67227;SDS011;54139;42.616;23.748;2023-04-25T13:17:52;2.92;;;1.20;;
67227;SDS011;54139;42.616;23.748;2023-04-25T13:20:18;2.38;;;1.13;;
67227;SDS011;54139;42.616;23.748;2023-04-25T13:22:47;2.03;;;1.33;;
67227;SDS011;54139;42.616;23.748;2023-04-25T13:25:12;2.35;;;1.70;;
67227;SDS011;54139;42.616;23.748;2023-04-25T13:27:38;2.33;;;1.92;;
67227;SDS011;54139;42.616;23.748;2023-04-25T13:30:05;2.78;;;1.00;;
67227;SDS011;54139;42.616;23.748;2023-04-25T13:32:35;2.08;;;1.05;;
67227;SDS011;54139;42.616;23.748;2023-04-25T13:35:02;2.58;;;0.88;;
67227;SDS011;54139;42.616;23.748;2023-04-25T13:37:27;1.88;;;1.05;;
67227;SDS011;54139;42.616;23.748;2023-04-25T13:39:54;3.70;;;0.60;;
67227;SDS011;54139;42.616;23.748;2023-04-25T13:42:20;0.70;;;0.50;;
67227;SDS011;54139;42.616;23.748;2023-04-25T13:44:46;1.85;;;0.60;;
67227;SDS011;54139;42.616;23.748;2023-04-25T13:47:11;1.10;;;0.90;;
67227;SDS011;54139;42.616;23.748;2023-04-25T13:49:36;0.80;;;0.73;;
67227;SDS011;54139;42.616;23.748;2023-04-25T13:52:02;2.00;;;0.60;;
67227;SDS011;54139;42.616;23.748;2023-04-25T13:54:27;0.82;;;0.65;;
67227;SDS011;54139;42.616;23.748;2023-04-25T13:56:52;0.93;;;0.50;;
67227;SDS011;54139;42.616;23.748;2023-04-25T13:59:20;1.17;;;1.08;;
67227;SDS011;54139;42.616;23.748;2023-04-25T14:01:45;1.70;;;1.60;;
67227;SDS011;54139;42.616;23.748;2023-04-25T14:04:11;2.50;;;0.60;;
67227;SDS011;54139;42.616;23.748;2023-04-25T14:06:36;0.60;;;0.57;;
67227;SDS011;54139;42.616;23.748;2023-04-25T14:09:02;1.08;;;0.82;;
67227;SDS011;54139;42.616;23.748;2023-04-25T14:11:29;1.55;;;0.60;;
67227;SDS011;54139;42.616;23.748;2023-04-25T14:13:54;0.98;;;0.50;;
67227;SDS011;54139;42.616;23.748;2023-04-25T14:16:20;0.63;;;0.45;;
67227;SDS011;54139;42.616;23.748;2023-04-25T14:18:45;1.15;;;0.75;;
67227;SDS011;54139;42.616;23.748;2023-04-25T14:21:10;0.65;;;0.40;;
67227;SDS011;54139;42.616;23.748;2023-04-25T14:23:36;0.80;;;0.60;;
67227;SDS011;54139;42.616;23.748;2023-04-25T14:26:01;4.60;;;0.90;;
67227;SDS011;54139;42.616;23.748;2023-04-25T14:28:27;2.38;;;0.80;;
67227;SDS011;54139;42.616;23.748;2023-04-25T14:30:52;1.25;;;1.08;;